Terminal Aerodrome Forecast
Issued by NWS

Home | Current Version | Previous Version | Text Only | Print | Product List | Glossary On
Versions: 1 2 3 4 5 6 7 8 9 10 11 12 13
116
FTUS45 KRIW 150539
TAFCPR
TAF
KCPR 150539Z 1506/1606 24013G21KT P6SM SCT200
     FM151200 23020G30KT P6SM SCT200
     FM152000 22025G35KT P6SM SCT200
     FM160200 22020G28KT P6SM BKN200=

USA.gov is the U.S. government's official web portal to all federal, state and local government web resources and services.